Página principal
METAR-TAF:

METAR-TAF

Aeroportos :

Quebec, Quebec, Canadá

latitude: 46-48N, longitude: 071-23W, altura: 70 m

Observação actual do tempo

O boletim foi feito há 21 minutos, às 11:00 UTC
Vento 3 kt de nordeste, variando entre norte e es-nordeste
Temperatura 14°C
Humidade 88%
Pressão 1023 hPa
Visibilidade: 48.3 km
Poucas nuvensa uma altura de 8000 ft
Poucas nuvensa uma altura de 22000 ft

METAR: CYQB 201100Z 04003KT 360V060 30SM FEW080 FEW220 14/12 A3020 RMK AC1CS1 AC TR SLP231

Hora: 07:21 (11:21 UTC)

Previsão

O boletim foi feito há 5 horas e 43 minutos, às 05:38 UTC
Previsão válida de 20 às 06 UTC a 21 às 06 UTC
Vento 5 kt de nor-nordeste
Visibilidade: 10 km
Céu limpo
A partir de 20 às 1600 UTC
Vento 3 kt com direcção variável
Visibilidade: 10 km
Poucas nuvensa uma altura de 5000 ft

TAF: CYQB 200538Z 2006/2106 03005KT P6SM SKC FM201600 VRB03KT P6SM FEW050 RMK NXT FCST BY 201200Z

Observações e previsões do tempo de mais de 4000 aeroportos (mensagens METAR e TAF).

As estações disponíveis são os pontos amarelos e vermelhos sobre o mapa.

Mova o rato sobre o mapa para ver o nome da estação.

Depois clique no ponto para visualizar as observações e previsões meteorológicas.

Para alterar o mapa : clique nos botões verdes com uma cruz preta para aumentar o zoom; no botão verde com uma pitada de zoom; ou nas setas verdes para mapas adjacentes.


METAR-TAF: